createdAt,value
2022-10-14T00:03:18.501Z,59.00
2022-10-14T00:13:20.263Z,59.00
2022-10-14T00:23:22.161Z,59.00
2022-10-14T00:33:24.693Z,59.00
2022-10-14T00:43:28.943Z,58.80
2022-10-14T00:53:30.754Z,58.90
2022-10-14T01:03:34.128Z,58.70
2022-10-14T01:13:44.182Z,58.70
2022-10-14T01:24:12.115Z,59.10
2022-10-14T01:34:19.540Z,58.80
2022-10-14T01:44:26.818Z,58.50
2022-10-14T01:54:34.958Z,58.40
2022-10-14T02:04:36.779Z,58.50
2022-10-14T02:15:00.859Z,58.30
2022-10-14T02:25:25.271Z,58.30
2022-10-14T02:35:28.800Z,58.30
2022-10-14T02:45:30.695Z,58.40
2022-10-14T02:55:33.911Z,58.30
2022-10-14T03:05:35.803Z,58.30
2022-10-14T03:15:43.800Z,58.10
2022-10-14T03:25:47.129Z,58.10
2022-10-14T03:36:12.159Z,58.20
2022-10-14T03:46:34.369Z,58.40
2022-10-14T03:56:37.452Z,58.70
2022-10-14T04:06:39.323Z,58.80
2022-10-14T04:16:49.532Z,59.50
2022-10-14T04:26:52.868Z,58.70
2022-10-14T04:37:15.003Z,58.60
2022-10-14T04:47:26.686Z,58.70
2022-10-14T04:57:33.730Z,58.50
2022-10-14T05:07:36.768Z,58.50
2022-10-14T05:17:54.485Z,58.60
2022-10-14T05:28:04.135Z,58.80
2022-10-14T05:38:07.000Z,59.20
2022-10-14T05:48:13.258Z,59.20
2022-10-14T05:58:15.550Z,59.20
2022-10-14T06:08:20.171Z,59.20
2022-10-14T06:18:22.293Z,59.40
2022-10-14T06:28:24.321Z,59.20
2022-10-14T06:38:26.154Z,58.80
2022-10-14T06:48:27.964Z,58.80
2022-10-14T06:58:30.073Z,59.00
2022-10-14T07:08:32.293Z,58.80
2022-10-14T07:18:34.120Z,58.70
2022-10-14T07:28:36.089Z,58.60
2022-10-14T07:38:38.545Z,58.40
2022-10-14T07:48:57.563Z,58.40
2022-10-14T07:58:59.816Z,58.20
2022-10-14T08:09:03.680Z,58.20
2022-10-14T08:19:13.506Z,57.90
2022-10-14T08:29:16.944Z,58.00
2022-10-14T08:39:19.383Z,58.10
2022-10-14T08:49:42.939Z,57.90
2022-10-14T08:59:45.213Z,57.80
2022-10-14T09:10:02.413Z,57.90
2022-10-14T09:20:18.467Z,58.00
2022-10-14T09:30:20.359Z,57.90
2022-10-14T09:40:37.657Z,57.80
2022-10-14T09:50:48.320Z,57.60
2022-10-14T10:00:57.383Z,57.80
2022-10-14T10:11:14.330Z,57.80
2022-10-14T10:21:27.843Z,57.80
2022-10-14T10:42:09.798Z,57.70
2022-10-14T10:52:30.699Z,57.90
2022-10-14T11:02:45.946Z,58.00
2022-10-14T11:13:04.613Z,57.90
2022-10-14T11:23:18.635Z,57.90
2022-10-14T11:33:37.452Z,58.00
2022-10-14T11:44:15.144Z,58.00
2022-10-14T11:54:32.662Z,58.00
2022-10-14T12:04:37.325Z,58.10
2022-10-14T12:14:52.220Z,58.10
2022-10-14T12:24:56.206Z,58.10
2022-10-14T12:35:01.691Z,58.10
2022-10-14T12:45:20.055Z,58.00
2022-10-14T12:55:24.610Z,58.00
2022-10-14T13:05:36.505Z,58.40
2022-10-14T13:15:52.769Z,58.30
2022-10-14T13:26:05.261Z,58.40
2022-10-14T13:36:22.442Z,58.70
2022-10-14T13:46:34.609Z,59.30
2022-10-14T13:56:40.778Z,59.30
2022-10-14T14:07:03.108Z,59.30
2022-10-14T14:17:16.909Z,59.30
2022-10-14T14:27:24.510Z,59.40
2022-10-14T14:47:56.486Z,59.50
2022-10-14T14:58:02.548Z,59.50
2022-10-14T15:08:04.847Z,59.30
2022-10-14T15:18:13.502Z,59.30
2022-10-14T15:28:32.523Z,59.30
2022-10-14T15:38:37.524Z,59.40
2022-10-14T15:48:52.323Z,59.30
2022-10-14T15:58:54.502Z,59.30
2022-10-14T16:08:56.707Z,59.30
2022-10-14T16:19:02.326Z,59.30
2022-10-14T16:29:04.299Z,59.30
2022-10-14T16:39:06.179Z,59.40
2022-10-14T16:49:08.330Z,59.30
2022-10-14T16:59:13.766Z,59.30
2022-10-14T17:09:17.261Z,59.40
2022-10-14T17:19:19.831Z,59.30
2022-10-14T17:29:22.571Z,59.40
2022-10-14T17:39:29.290Z,59.30
2022-10-14T17:49:31.803Z,59.30
2022-10-14T17:59:34.872Z,59.30
2022-10-14T18:09:36.648Z,59.30
2022-10-14T18:19:41.092Z,59.20
2022-10-14T18:29:43.173Z,59.30
2022-10-14T18:39:44.991Z,59.30
2022-10-14T18:49:48.318Z,59.30
2022-10-14T18:59:51.175Z,59.30
2022-10-14T19:09:55.600Z,59.30
2022-10-14T19:20:00.927Z,59.30
2022-10-14T19:30:02.783Z,59.30
2022-10-14T19:40:04.985Z,59.30
2022-10-14T19:50:07.351Z,59.30
2022-10-14T20:00:09.982Z,59.30
2022-10-14T20:10:12.440Z,59.30
2022-10-14T20:20:14.232Z,59.40
2022-10-14T20:30:16.380Z,59.90
2022-10-14T20:40:20.001Z,59.60
2022-10-14T20:50:22.796Z,59.40
2022-10-14T21:00:24.710Z,59.50
2022-10-14T21:10:27.492Z,59.30
2022-10-14T21:20:29.415Z,59.50
2022-10-14T21:30:31.305Z,59.30
2022-10-14T21:40:33.307Z,59.30
2022-10-14T21:50:35.070Z,59.30
2022-10-14T22:00:36.841Z,59.40
2022-10-14T22:10:41.984Z,59.30
2022-10-14T22:20:43.812Z,59.30
2022-10-14T22:30:45.720Z,59.40
2022-10-14T22:40:47.954Z,59.30
2022-10-14T22:50:49.712Z,60.00
2022-10-14T23:00:51.590Z,59.30
2022-10-14T23:10:53.449Z,59.30
2022-10-14T23:20:55.570Z,59.30
2022-10-14T23:30:58.143Z,59.30
2022-10-14T23:41:02.676Z,59.30
2022-10-14T23:51:05.065Z,59.30
